Time;durP1;ratioP1;P1;durP2;ratioP2;P2;SDS_P1;SDS_P2;PMS_P1;PMS_P2;Temp;Humidity;BMP_temperature;BMP_pressure;BME280_temperature;BME280_humidity;BME280_pressure;Samples;Min_cycle;Max_cycle;Signal;HPM_P1;HPM_P2
2021/01/13 00:02:06;;;;;;;1.20;1.10;;;1.10;99.90;;;;;;4865229;28;20465;-90
2021/01/13 00:04:32;;;;;;;0.90;0.90;;;1.20;99.90;;;;;;4844957;29;20426;-89
2021/01/13 00:06:58;;;;;;;1.25;1.15;;;1.10;99.90;;;;;;4847790;28;20790;-89
2021/01/13 00:09:24;;;;;;;1.13;1.00;;;1.10;99.90;;;;;;4854779;29;20446;-81
2021/01/13 00:11:56;;;;;;;1.02;0.90;;;1.10;99.90;;;;;;4839728;28;20412;-82
2021/01/13 00:14:23;;;;;;;1.08;1.00;;;1.10;99.90;;;;;;4843964;28;20413;-81
2021/01/13 00:16:49;;;;;;;1.00;1.00;;;1.20;99.90;;;;;;4860659;29;20426;-86
2021/01/13 00:19:15;;;;;;;1.02;1.02;;;1.10;99.90;;;;;;4852678;29;20401;-83
2021/01/13 00:21:40;;;;;;;1.20;1.10;;;1.10;99.90;;;;;;4851357;28;20424;-88
2021/01/13 00:24:07;;;;;;;1.20;1.10;;;1.10;99.90;;;;;;4854636;28;20512;-84
2021/01/13 00:26:33;;;;;;;0.85;0.85;;;1.10;99.90;;;;;;4854878;28;20452;-89
2021/01/13 00:28:58;;;;;;;3.08;1.30;;;1.10;99.90;;;;;;4853923;28;20495;-87
2021/01/13 00:31:24;;;;;;;1.48;1.30;;;1.10;99.90;;;;;;4855330;29;20459;-88
2021/01/13 00:33:50;;;;;;;1.20;1.10;;;1.10;99.90;;;;;;4853792;28;20408;-86
2021/01/13 00:36:17;;;;;;;3.70;1.30;;;1.10;99.90;;;;;;4855108;28;20400;-86
2021/01/13 00:38:43;;;;;;;1.50;1.40;;;1.10;99.90;;;;;;4854102;28;21060;-86
2021/01/13 00:41:11;;;;;;;1.30;1.20;;;1.10;99.90;;;;;;4855868;28;20425;-91
2021/01/13 00:43:37;;;;;;;1.40;0.93;;;1.00;99.90;;;;;;4855363;28;20413;-89
2021/01/13 00:46:02;;;;;;;2.70;0.90;;;1.10;99.90;;;;;;4856664;28;20392;-88
2021/01/13 00:48:28;;;;;;;1.60;1.30;;;1.10;99.90;;;;;;4857958;29;20407;-84
2021/01/13 00:50:54;;;;;;;1.48;1.25;;;1.10;99.90;;;;;;4901366;29;20680;-90
2021/01/13 00:53:21;;;;;;;1.20;1.13;;;1.20;99.90;;;;;;4949698;29;20408;-87
2021/01/13 00:55:46;;;;;;;2.38;1.23;;;1.20;99.90;;;;;;4944398;28;20405;-84
2021/01/13 00:58:12;;;;;;;1.13;1.05;;;1.20;99.90;;;;;;4928403;28;21528;-88
2021/01/13 01:00:40;;;;;;;2.17;1.42;;;1.20;99.90;;;;;;4917395;28;20400;-87
2021/01/13 01:03:06;;;;;;;2.20;1.20;;;1.20;99.90;;;;;;4854551;28;20412;-87
2021/01/13 01:05:32;;;;;;;1.88;1.33;;;1.20;99.90;;;;;;4850803;29;20401;-89
2021/01/13 01:07:57;;;;;;;2.30;1.40;;;1.20;99.90;;;;;;4854791;28;20493;-86
2021/01/13 01:10:31;;;;;;;2.67;1.20;;;1.30;99.90;;;;;;4853663;29;20416;-83
2021/01/13 01:12:57;;;;;;;1.83;1.10;;;1.20;99.90;;;;;;4853901;28;20894;-87
2021/01/13 01:15:23;;;;;;;3.70;1.35;;;1.20;99.90;;;;;;4837980;28;20425;-85
2021/01/13 01:17:49;;;;;;;1.25;1.00;;;1.20;99.90;;;;;;4853027;28;20405;-87
2021/01/13 01:20:15;;;;;;;1.30;1.20;;;1.20;99.90;;;;;;4852645;28;20401;-86
2021/01/13 01:22:51;;;;;;;0.88;0.88;;;1.20;99.90;;;;;;4852836;29;20397;-89
2021/01/13 01:25:17;;;;;;;1.17;1.08;;;1.20;99.90;;;;;;4868082;29;20405;-85
2021/01/13 01:27:42;;;;;;;1.42;1.33;;;1.20;99.90;;;;;;4851629;28;20412;-82
2021/01/13 01:30:08;;;;;;;1.77;1.37;;;1.20;99.90;;;;;;4854756;28;20489;-85
2021/01/13 01:32:34;;;;;;;1.80;1.15;;;1.20;99.90;;;;;;4840710;28;20416;-89
2021/01/13 01:35:00;;;;;;;1.30;1.20;;;1.10;99.90;;;;;;4855074;28;20413;-87
2021/01/13 01:37:25;;;;;;;1.83;1.00;;;1.10;99.90;;;;;;4850615;29;21156;-91
2021/01/13 01:39:51;;;;;;;1.50;1.33;;;1.10;99.90;;;;;;4850174;29;20414;-89
2021/01/13 01:42:17;;;;;;;2.03;1.20;;;1.10;99.90;;;;;;4852900;29;20401;-91
2021/01/13 01:44:43;;;;;;;1.30;1.20;;;1.10;99.90;;;;;;4835544;28;20413;-89
2021/01/13 01:47:08;;;;;;;1.40;1.30;;;1.10;99.90;;;;;;4849127;28;20397;-86
2021/01/13 01:49:35;;;;;;;1.48;1.30;;;1.00;99.90;;;;;;4835079;29;20421;-85
2021/01/13 01:52:06;;;;;;;4.43;1.50;;;1.00;99.90;;;;;;4919200;28;20409;-83
2021/01/13 01:54:34;;;;;;;1.33;1.23;;;1.00;99.90;;;;;;4849704;28;20496;-84
2021/01/13 01:57:00;;;;;;;3.30;1.60;;;0.90;99.90;;;;;;4850580;28;20452;-88
2021/01/13 01:59:38;;;;;;;3.27;1.40;;;0.90;99.90;;;;;;4850689;29;20408;-82
2021/01/13 02:02:04;;;;;;;2.63;1.23;;;0.90;99.90;;;;;;4834212;28;20570;-89
2021/01/13 02:04:32;;;;;;;2.73;1.37;;;0.90;99.90;;;;;;4851643;28;20405;-87
2021/01/13 02:06:58;;;;;;;1.70;1.50;;;0.80;99.90;;;;;;4915136;28;20399;-85
2021/01/13 02:09:27;;;;;;;1.92;1.35;;;0.80;99.90;;;;;;4865071;28;20432;-88
2021/01/13 02:11:57;;;;;;;3.45;1.60;;;0.80;99.90;;;;;;4849188;28;20425;-82
2021/01/13 02:14:23;;;;;;;1.70;1.60;;;0.80;99.90;;;;;;4847180;29;20421;-83
2021/01/13 02:16:54;;;;;;;1.30;1.20;;;0.70;99.90;;;;;;4846415;29;20407;-83
2021/01/13 02:19:46;;;;;;;1.90;1.23;;;0.70;99.90;;;;;;4860824;29;20602;-87
2021/01/13 02:22:13;;;;;;;1.85;1.45;;;0.70;99.90;;;;;;4848100;29;20508;-91
2021/01/13 02:25:01;;;;;;;2.03;1.80;;;0.70;99.90;;;;;;4862284;29;20407;-87
2021/01/13 02:28:05;;;;;;;1.65;1.55;;;0.70;99.90;;;;;;4853874;29;20419;-86
2021/01/13 02:30:38;;;;;;;2.58;1.67;;;0.60;99.90;;;;;;4920669;29;20418;-84
2021/01/13 02:33:12;;;;;;;1.85;1.63;;;0.70;99.90;;;;;;4906486;29;20438;-82
2021/01/13 02:36:06;;;;;;;2.35;2.03;;;0.70;99.90;;;;;;4906938;29;20415;-82
2021/01/13 02:38:32;;;;;;;2.00;1.90;;;0.70;99.90;;;;;;4851120;28;20409;-82
2021/01/13 02:40:58;;;;;;;2.28;2.08;;;0.70;99.90;;;;;;4832052;28;20415;-82
2021/01/13 02:43:24;;;;;;;3.90;2.30;;;0.70;99.90;;;;;;4902405;29;20408;-82
2021/01/13 02:45:49;;;;;;;3.87;1.93;;;0.80;99.90;;;;;;4852016;28;20488;-83
2021/01/13 02:48:22;;;;;;;3.03;1.92;;;0.80;99.90;;;;;;4843892;28;20401;-81
2021/01/13 02:50:57;;;;;;;3.00;2.33;;;0.80;99.90;;;;;;4841782;28;20456;-80
2021/01/13 02:53:30;;;;;;;2.47;2.28;;;0.90;99.90;;;;;;4843344;28;21119;-79
2021/01/13 02:55:55;;;;;;;3.83;2.57;;;0.80;99.90;;;;;;4858432;28;20439;-80
2021/01/13 02:58:25;;;;;;;4.57;2.77;;;0.80;99.90;;;;;;4872630;28;20417;-83
2021/01/13 03:00:52;;;;;;;2.67;2.45;;;0.80;99.90;;;;;;4842354;28;20480;-84
2021/01/13 03:03:18;;;;;;;5.35;2.55;;;0.80;99.90;;;;;;4845282;28;20467;-84
2021/01/13 03:05:47;;;;;;;3.10;2.63;;;0.90;99.90;;;;;;4860704;28;20432;-82
2021/01/13 03:08:13;;;;;;;3.15;2.83;;;0.90;99.90;;;;;;4848539;28;20421;-81
2021/01/13 03:10:39;;;;;;;3.35;2.78;;;0.80;99.90;;;;;;4863315;28;20425;-82
2021/01/13 03:13:10;;;;;;;4.43;2.50;;;0.90;99.90;;;;;;4845511;29;20413;-83
2021/01/13 03:15:36;;;;;;;2.80;2.60;;;0.90;99.90;;;;;;4861261;28;20440;-85
2021/01/13 03:18:15;;;;;;;3.78;2.85;;;0.90;99.90;;;;;;4846488;29;20436;-82
2021/01/13 03:21:04;;;;;;;2.67;2.47;;;0.90;99.90;;;;;;4860467;28;20898;-81
2021/01/13 03:23:49;;;;;;;2.85;2.50;;;0.90;99.90;;;;;;4926740;28;20407;-81
2021/01/13 03:26:21;;;;;;;3.47;2.40;;;0.90;99.90;;;;;;4944872;28;20416;-82
2021/01/13 03:28:47;;;;;;;2.53;2.33;;;0.90;99.90;;;;;;4845752;29;20840;-82
2021/01/13 03:31:17;;;;;;;4.10;2.90;;;0.90;99.90;;;;;;4842832;29;20414;-85
2021/01/13 03:34:19;;;;;;;3.15;2.85;;;0.90;99.90;;;;;;4958691;28;20408;-83
2021/01/13 03:36:58;;;;;;;5.18;2.65;;;0.90;99.90;;;;;;4958544;28;20455;-81
2021/01/13 03:39:24;;;;;;;4.70;2.40;;;0.90;99.90;;;;;;4959660;28;20483;-87
2021/01/13 03:41:53;;;;;;;3.08;2.30;;;0.90;99.90;;;;;;4939119;28;20416;-87
2021/01/13 03:44:29;;;;;;;4.47;2.67;;;0.90;99.90;;;;;;4959199;28;20400;-86
2021/01/13 03:46:55;;;;;;;3.65;2.75;;;0.90;99.90;;;;;;4876654;28;20409;-85
2021/01/13 03:49:26;;;;;;;3.35;2.38;;;0.90;99.90;;;;;;4849743;29;20424;-89
2021/01/13 03:52:07;;;;;;;5.03;3.20;;;0.90;99.90;;;;;;4844646;28;20933;-86
2021/01/13 03:54:35;;;;;;;4.80;2.63;;;0.90;99.90;;;;;;4848411;28;20499;-90
2021/01/13 03:57:05;;;;;;;4.40;2.70;;;0.90;99.90;;;;;;4867385;29;20405;-86
2021/01/13 03:59:42;;;;;;;2.95;2.53;;;0.90;99.90;;;;;;4849977;28;20460;-86
2021/01/13 04:02:08;;;;;;;5.78;3.22;;;0.90;99.90;;;;;;4857650;28;20464;-82
2021/01/13 04:04:54;;;;;;;4.22;2.63;;;1.00;99.90;;;;;;4860289;28;20401;-82
2021/01/13 04:07:20;;;;;;;5.55;2.72;;;0.90;99.90;;;;;;4941811;28;20396;-83
2021/01/13 04:09:46;;;;;;;3.40;2.63;;;0.90;99.90;;;;;;4852526;29;20426;-84
2021/01/13 04:12:13;;;;;;;4.40;2.80;;;1.00;99.90;;;;;;4857375;28;20839;-84
2021/01/13 04:14:55;;;;;;;3.67;2.50;;;0.90;99.90;;;;;;4823402;29;20399;-85
2021/01/13 04:17:25;;;;;;;6.50;3.00;;;0.90;99.90;;;;;;4866211;28;20767;-79
2021/01/13 04:19:51;;;;;;;3.60;3.00;;;0.90;99.90;;;;;;4841200;28;20995;-83
2021/01/13 04:22:18;;;;;;;4.82;3.00;;;0.90;99.90;;;;;;4841889;28;20910;-84
2021/01/13 04:24:46;;;;;;;4.57;2.80;;;0.90;99.90;;;;;;4842950;28;20416;-85
2021/01/13 04:27:18;;;;;;;3.20;2.70;;;0.90;99.90;;;;;;4843703;28;20421;-81
2021/01/13 04:29:44;;;;;;;2.83;2.47;;;1.00;99.90;;;;;;4859772;28;20424;-82
2021/01/13 04:32:10;;;;;;;3.03;2.40;;;0.90;99.90;;;;;;4843605;28;20459;-84
2021/01/13 04:34:36;;;;;;;3.53;2.63;;;0.90;99.90;;;;;;4841388;28;20467;-84
2021/01/13 04:37:03;;;;;;;2.20;2.00;;;1.00;99.90;;;;;;4832238;29;20434;-84
2021/01/13 04:39:29;;;;;;;4.18;2.70;;;1.00;99.90;;;;;;4858743;29;20413;-84
2021/01/13 04:41:58;;;;;;;4.22;2.35;;;1.00;99.90;;;;;;4898116;28;20931;-91
2021/01/13 04:44:24;;;;;;;3.03;2.40;;;1.00;99.90;;;;;;4866134;29;20396;-85
2021/01/13 04:46:49;;;;;;;4.50;2.53;;;1.00;99.90;;;;;;4848660;28;20405;-84
2021/01/13 04:49:21;;;;;;;4.47;2.17;;;1.00;99.90;;;;;;4848116;28;20408;-87
2021/01/13 04:51:47;;;;;;;5.68;2.65;;;1.00;99.90;;;;;;4862866;28;21141;-84
2021/01/13 04:54:17;;;;;;;2.58;2.13;;;1.00;99.90;;;;;;4847200;29;20405;-85
2021/01/13 04:57:01;;;;;;;5.47;2.43;;;1.00;99.90;;;;;;4846924;28;20420;-83
2021/01/13 04:59:48;;;;;;;3.28;2.40;;;0.90;99.90;;;;;;4876911;28;20544;-84
2021/01/13 05:02:17;;;;;;;3.10;2.25;;;0.90;99.90;;;;;;4877101;28;20932;-85
2021/01/13 05:05:03;;;;;;;3.08;2.25;;;0.90;99.90;;;;;;4847714;29;20405;-85
2021/01/13 05:07:32;;;;;;;3.10;2.07;;;0.90;99.90;;;;;;4943392;28;20399;-87
2021/01/13 05:10:14;;;;;;;3.30;2.00;;;0.90;99.90;;;;;;4956579;28;20443;-83
2021/01/13 05:12:52;;;;;;;2.30;2.10;;;0.90;99.90;;;;;;4914469;29;20426;-85
2021/01/13 05:15:26;;;;;;;5.63;2.30;;;0.90;99.90;;;;;;4859998;28;20423;-85
2021/01/13 05:18:08;;;;;;;3.40;2.20;;;0.90;99.90;;;;;;4831669;28;20469;-86
2021/01/13 05:20:40;;;;;;;2.60;2.03;;;1.10;99.90;;;;;;4920943;29;20402;-87
2021/01/13 05:23:08;;;;;;;3.97;2.28;;;0.90;99.90;;;;;;4939636;29;20402;-82
2021/01/13 05:25:36;;;;;;;3.40;2.30;;;0.90;99.90;;;;;;4938650;29;20409;-81
2021/01/13 05:28:21;;;;;;;2.92;2.13;;;0.90;99.90;;;;;;4944202;29;20410;-88
2021/01/13 05:30:49;;;;;;;2.25;2.00;;;1.00;99.90;;;;;;4929676;29;20477;-85
2021/01/13 05:33:22;;;;;;;2.42;2.22;;;1.00;99.90;;;;;;4926331;29;20415;-87
2021/01/13 05:36:04;;;;;;;3.08;2.67;;;1.00;99.90;;;;;;4926857;29;20406;-82
2021/01/13 05:38:48;;;;;;;2.33;2.10;;;1.00;99.90;;;;;;4875261;28;20912;-77
2021/01/13 05:41:14;;;;;;;2.50;2.20;;;1.00;99.90;;;;;;4871098;28;20409;-75
2021/01/13 05:43:44;;;;;;;2.65;2.10;;;1.10;99.90;;;;;;4866681;28;20525;-74
2021/01/13 05:46:11;;;;;;;2.97;2.30;;;1.10;99.90;;;;;;4871040;28;20933;-77
2021/01/13 05:48:47;;;;;;;2.80;1.95;;;1.10;99.90;;;;;;4846016;28;20960;-77
2021/01/13 05:51:13;;;;;;;2.53;1.83;;;1.10;99.90;;;;;;4865500;28;20413;-78
2021/01/13 05:53:49;;;;;;;2.70;2.10;;;1.10;99.90;;;;;;4858192;29;20491;-82
2021/01/13 05:56:16;;;;;;;6.28;2.40;;;1.20;99.90;;;;;;4944520;28;20396;-82
2021/01/13 05:58:41;;;;;;;2.55;1.95;;;1.20;99.90;;;;;;4925661;28;20415;-79
2021/01/13 06:01:22;;;;;;;3.10;2.20;;;1.20;99.90;;;;;;4887185;28;20408;-79
2021/01/13 06:03:47;;;;;;;2.50;2.08;;;1.20;99.90;;;;;;4844007;28;20413;-78
2021/01/13 06:06:13;;;;;;;2.63;1.95;;;1.20;99.90;;;;;;4836128;28;20401;-81
2021/01/13 06:08:39;;;;;;;3.33;2.23;;;1.20;99.90;;;;;;4838509;29;20410;-79
2021/01/13 06:11:05;;;;;;;2.42;1.83;;;1.20;99.90;;;;;;4849545;29;20407;-77
2021/01/13 06:13:32;;;;;;;4.85;2.00;;;1.20;99.90;;;;;;4852314;28;20985;-74
2021/01/13 06:16:03;;;;;;;3.23;2.23;;;1.20;99.90;;;;;;4875831;28;20404;-77
2021/01/13 06:18:30;;;;;;;3.22;2.20;;;1.20;99.90;;;;;;4858351;29;20408;-76
2021/01/13 06:20:57;;;;;;;3.15;2.10;;;1.20;99.90;;;;;;4935869;28;20403;-76
2021/01/13 06:23:28;;;;;;;2.15;1.80;;;1.20;99.90;;;;;;4935369;28;20809;-81
2021/01/13 06:25:54;;;;;;;3.80;2.40;;;1.20;99.90;;;;;;4920701;28;20400;-75
2021/01/13 06:28:32;;;;;;;2.63;2.15;;;1.20;99.90;;;;;;4951565;28;20417;-77
2021/01/13 06:31:08;;;;;;;2.83;2.33;;;1.20;99.90;;;;;;4914676;28;20537;-77
2021/01/13 06:33:50;;;;;;;2.22;2.03;;;1.20;99.90;;;;;;4893357;28;20412;-79
2021/01/13 06:36:49;;;;;;;2.08;1.85;;;1.20;99.90;;;;;;4847398;29;20817;-75
2021/01/13 06:39:16;;;;;;;2.30;2.10;;;1.30;99.90;;;;;;4905512;28;20401;-79
2021/01/13 06:41:48;;;;;;;2.88;1.77;;;1.30;99.90;;;;;;4872131;29;20484;-79
2021/01/13 06:44:15;;;;;;;2.33;1.92;;;1.20;99.90;;;;;;4821500;29;20488;-74
2021/01/13 06:46:41;;;;;;;2.90;1.63;;;1.30;99.90;;;;;;4852245;29;20413;-75
2021/01/13 06:49:20;;;;;;;1.77;1.63;;;1.20;99.90;;;;;;4841324;29;20425;-77
2021/01/13 06:51:47;;;;;;;2.30;2.10;;;1.30;99.90;;;;;;4831765;29;20418;-82
2021/01/13 06:54:22;;;;;;;3.17;1.85;;;1.30;99.90;;;;;;4845651;29;20415;-81
2021/01/13 06:56:57;;;;;;;1.95;1.67;;;1.20;99.90;;;;;;4883396;28;20419;-78
2021/01/13 06:59:24;;;;;;;1.70;1.60;;;1.20;99.90;;;;;;4940902;28;20398;-86
2021/01/13 07:01:54;;;;;;;3.03;1.90;;;1.20;99.90;;;;;;4852882;29;20569;-80
2021/01/13 07:04:20;;;;;;;2.22;1.98;;;1.20;99.90;;;;;;4853789;28;20484;-77
2021/01/13 07:07:07;;;;;;;2.90;1.90;;;1.20;99.90;;;;;;4826856;28;20852;-82
2021/01/13 07:09:37;;;;;;;1.90;1.70;;;1.20;99.90;;;;;;4857188;28;20408;-78
2021/01/13 07:12:07;;;;;;;2.78;1.90;;;1.20;99.90;;;;;;4940136;28;21032;-78
2021/01/13 07:14:44;;;;;;;2.38;1.70;;;1.30;99.90;;;;;;4920276;29;20471;-80
2021/01/13 07:17:17;;;;;;;3.80;2.35;;;1.30;99.90;;;;;;4841608;28;20416;-79
2021/01/13 07:19:47;;;;;;;3.38;2.92;;;1.30;99.90;;;;;;4870004;28;20415;-78
2021/01/13 07:22:14;;;;;;;2.00;1.73;;;1.30;99.90;;;;;;4837296;29;20406;-80
2021/01/13 07:24:41;;;;;;;1.85;1.70;;;1.30;99.90;;;;;;4923331;28;20404;-77
2021/01/13 07:27:06;;;;;;;2.67;1.98;;;1.30;99.90;;;;;;4921011;28;20809;-81
2021/01/13 07:29:32;;;;;;;2.55;1.80;;;1.20;99.90;;;;;;4903754;28;20416;-80
2021/01/13 07:31:58;;;;;;;3.00;2.27;;;1.30;99.90;;;;;;4855942;28;20407;-83
2021/01/13 07:34:37;;;;;;;3.85;2.15;;;1.30;99.90;;;;;;4876442;28;20413;-77
2021/01/13 07:37:07;;;;;;;2.55;1.75;;;1.30;99.90;;;;;;4840548;29;20407;-79
2021/01/13 07:40:04;;;;;;;2.37;2.17;;;1.30;99.90;;;;;;4866648;28;20420;-79
2021/01/13 07:42:36;;;;;;;7.18;2.38;;;1.30;99.90;;;;;;4856802;28;20413;-77
2021/01/13 07:45:04;;;;;;;2.67;1.98;;;1.20;99.90;;;;;;4840276;29;20475;-79
2021/01/13 07:47:49;;;;;;;3.53;1.83;;;1.30;99.90;;;;;;4882608;29;20448;-76
2021/01/13 07:50:15;;;;;;;2.22;2.00;;;1.30;99.90;;;;;;4905273;28;20429;-84
2021/01/13 07:52:45;;;;;;;3.10;1.70;;;1.30;99.90;;;;;;4845113;28;20527;-80
2021/01/13 07:55:20;;;;;;;2.35;1.90;;;1.30;99.90;;;;;;4865428;28;20412;-77
2021/01/13 07:57:56;;;;;;;2.55;2.10;;;1.30;99.90;;;;;;4866624;28;20451;-74
2021/01/13 08:00:34;;;;;;;5.97;2.20;;;1.30;99.90;;;;;;4948506;28;20415;-80
2021/01/13 08:03:18;;;;;;;2.20;2.00;;;1.30;99.90;;;;;;4845954;29;20406;-83
2021/01/13 08:06:08;;;;;;;2.08;1.70;;;1.30;99.90;;;;;;4943379;28;20400;-76
2021/01/13 08:09:12;;;;;;;3.38;2.10;;;1.40;99.90;;;;;;4902127;28;20409;-82
2021/01/13 08:12:09;;;;;;;3.33;2.28;;;1.30;99.90;;;;;;4938750;28;21237;-78
2021/01/13 08:14:54;;;;;;;3.70;2.03;;;1.40;99.90;;;;;;4914421;28;20897;-76
2021/01/13 08:17:50;;;;;;;2.00;1.80;;;1.40;99.90;;;;;;4909079;28;20411;-77
2021/01/13 08:20:26;;;;;;;4.80;2.00;;;1.50;99.90;;;;;;4968286;28;20404;-79
2021/01/13 08:23:09;;;;;;;5.33;1.97;;;1.40;99.90;;;;;;4950627;28;20453;-79
2021/01/13 08:25:36;;;;;;;4.87;2.27;;;1.50;99.90;;;;;;4936919;28;20400;-81
2021/01/13 08:28:02;;;;;;;2.38;1.98;;;1.40;99.90;;;;;;4934346;28;20986;-77
2021/01/13 08:30:29;;;;;;;3.13;2.03;;;1.50;99.90;;;;;;4913359;28;20427;-78
2021/01/13 08:32:55;;;;;;;4.70;2.00;;;1.50;99.90;;;;;;4867628;28;20424;-84
2021/01/13 08:35:35;;;;;;;4.38;1.70;;;1.50;99.90;;;;;;4935031;28;20406;-89
2021/01/13 08:38:08;;;;;;;3.22;2.00;;;1.60;99.90;;;;;;4950844;28;20412;-82
2021/01/13 08:40:35;;;;;;;3.27;2.13;;;1.60;99.90;;;;;;4950855;28;20928;-82
2021/01/13 08:43:14;;;;;;;4.72;1.77;;;1.70;99.90;;;;;;4936679;29;20418;-82
2021/01/13 08:45:50;;;;;;;4.13;1.80;;;1.60;99.90;;;;;;4900410;29;20854;-87
2021/01/13 08:48:21;;;;;;;2.20;1.88;;;1.70;99.90;;;;;;4859631;28;20424;-81
2021/01/13 08:51:08;;;;;;;4.40;1.92;;;1.70;99.90;;;;;;4839081;29;20418;-77
2021/01/13 08:53:37;;;;;;;2.65;1.70;;;1.70;99.90;;;;;;4960637;28;20415;-76
2021/01/13 08:56:03;;;;;;;2.83;1.80;;;1.70;99.90;;;;;;4936542;29;20414;-81
2021/01/13 08:58:33;;;;;;;2.50;1.70;;;1.70;99.90;;;;;;4938402;28;20559;-76
2021/01/13 09:01:05;;;;;;;4.30;1.80;;;1.70;99.90;;;;;;4903298;28;20552;-85
2021/01/13 09:03:40;;;;;;;4.45;3.10;;;1.70;99.90;;;;;;4841392;28;20547;-77
2021/01/13 09:06:24;;;;;;;3.78;2.00;;;1.70;99.90;;;;;;4842653;29;20413;-83
2021/01/13 09:08:51;;;;;;;11.98;3.35;;;1.70;99.90;;;;;;4954617;28;20466;-81
2021/01/13 09:11:36;;;;;;;2.10;1.88;;;1.70;99.90;;;;;;4938698;28;20889;-82
2021/01/13 09:14:22;;;;;;;3.17;2.15;;;1.80;99.90;;;;;;4918846;29;20390;-81
2021/01/13 09:16:48;;;;;;;4.82;1.90;;;1.70;99.90;;;;;;4851628;28;20448;-80
2021/01/13 09:19:14;;;;;;;1.63;1.52;;;1.80;99.90;;;;;;4839061;29;20407;-79
2021/01/13 09:21:40;;;;;;;2.83;1.70;;;1.70;99.90;;;;;;4848366;29;20416;-87
2021/01/13 09:24:08;;;;;;;3.70;1.93;;;1.70;99.90;;;;;;4845598;29;20457;-81
2021/01/13 09:26:37;;;;;;;4.65;1.92;;;1.70;99.90;;;;;;4846424;29;20461;-87
2021/01/13 09:29:05;;;;;;;5.10;2.40;;;1.70;99.90;;;;;;4830085;29;20876;-82
2021/01/13 09:31:31;;;;;;;3.65;1.77;;;1.70;99.90;;;;;;4828712;29;20468;-79
2021/01/13 09:33:57;;;;;;;3.77;1.87;;;1.70;99.90;;;;;;4825665;28;20417;-80
2021/01/13 09:36:23;;;;;;;2.60;1.90;;;1.70;99.90;;;;;;4826690;28;20398;-76
2021/01/13 09:38:49;;;;;;;2.83;1.90;;;1.70;99.90;;;;;;4825456;28;20409;-80
2021/01/13 09:41:22;;;;;;;2.60;1.70;;;1.70;99.90;;;;;;4826593;28;20448;-79
2021/01/13 09:43:48;;;;;;;2.47;1.60;;;1.70;99.90;;;;;;4822115;29;20923;-82
2021/01/13 09:46:23;;;;;;;2.38;1.85;;;1.70;99.90;;;;;;4877074;28;20459;-78
2021/01/13 09:49:00;;;;;;;3.03;1.80;;;1.80;99.90;;;;;;4854907;28;20468;-81
2021/01/13 09:51:26;;;;;;;5.00;1.83;;;1.80;99.90;;;;;;4840453;28;20922;-79
2021/01/13 09:53:53;;;;;;;4.68;1.95;;;1.80;99.90;;;;;;4840368;29;20948;-82
2021/01/13 09:56:19;;;;;;;2.33;1.73;;;1.90;99.90;;;;;;4825572;28;20413;-77
2021/01/13 09:58:46;;;;;;;4.40;2.13;;;2.00;99.90;;;;;;4841448;28;20409;-84
2021/01/13 10:01:21;;;;;;;4.15;2.75;;;2.00;99.90;;;;;;4855589;29;20401;-81
2021/01/13 10:03:49;;;;;;;3.92;2.80;;;2.00;99.90;;;;;;4954170;28;20403;-82
2021/01/13 10:06:19;;;;;;;3.67;2.00;;;2.10;99.90;;;;;;4922408;28;20393;-82
2021/01/13 10:08:45;;;;;;;7.67;2.57;;;2.10;99.90;;;;;;4923550;28;20384;-78
2021/01/13 10:11:12;;;;;;;4.45;2.03;;;2.20;99.90;;;;;;4924510;28;20950;-83
2021/01/13 10:13:39;;;;;;;4.50;1.60;;;2.10;99.90;;;;;;4923305;28;20900;-82
2021/01/13 10:16:05;;;;;;;3.40;2.10;;;2.00;99.90;;;;;;4901304;29;20526;-81
2021/01/13 10:18:30;;;;;;;2.90;1.70;;;2.10;99.90;;;;;;4937293;28;20406;-76
2021/01/13 10:20:57;;;;;;;2.67;1.70;;;2.10;99.90;;;;;;4852221;29;20419;-74
2021/01/13 10:23:29;;;;;;;2.78;1.55;;;2.10;99.90;;;;;;4899759;28;20402;-80
2021/01/13 10:26:04;;;;;;;2.58;1.80;;;2.10;99.90;;;;;;4939516;29;20397;-80
2021/01/13 10:28:30;;;;;;;2.83;1.98;;;2.10;99.90;;;;;;4933777;28;20426;-84
2021/01/13 10:30:56;;;;;;;2.42;1.85;;;2.10;99.90;;;;;;4903494;29;20425;-85
2021/01/13 10:33:43;;;;;;;2.53;1.83;;;2.10;99.90;;;;;;4863840;29;20433;-82
2021/01/13 10:36:10;;;;;;;2.47;1.80;;;2.20;99.90;;;;;;4948864;29;20489;-75
2021/01/13 10:38:37;;;;;;;2.30;1.80;;;2.20;99.90;;;;;;4862423;28;20849;-79
2021/01/13 10:41:03;;;;;;;4.43;1.80;;;2.20;99.90;;;;;;4860247;28;20560;-77
2021/01/13 10:43:28;;;;;;;1.73;1.63;;;2.30;99.90;;;;;;4844163;29;20414;-79
2021/01/13 10:45:57;;;;;;;5.03;1.90;;;2.30;99.90;;;;;;4837750;29;20414;-79
2021/01/13 10:48:24;;;;;;;2.78;1.88;;;2.30;99.90;;;;;;4822007;29;20414;-76
2021/01/13 10:50:49;;;;;;;2.75;1.70;;;2.30;99.90;;;;;;4834999;28;20786;-79
2021/01/13 10:53:15;;;;;;;2.83;1.80;;;2.30;99.90;;;;;;4832019;28;20409;-75
2021/01/13 10:55:43;;;;;;;2.47;1.80;;;2.40;99.90;;;;;;4844371;29;20436;-78
2021/01/13 10:58:09;;;;;;;2.15;1.65;;;2.40;99.90;;;;;;4919634;28;20400;-80
2021/01/13 11:00:35;;;;;;;3.93;2.23;;;2.40;99.90;;;;;;4940483;28;20420;-78
2021/01/13 11:03:04;;;;;;;1.73;1.63;;;2.40;99.90;;;;;;4889990;29;20426;-76
2021/01/13 11:05:34;;;;;;;2.38;1.90;;;2.40;99.90;;;;;;4959144;28;20427;-75
2021/01/13 11:08:00;;;;;;;3.55;2.42;;;2.40;99.90;;;;;;4936696;29;20416;-75
2021/01/13 11:10:25;;;;;;;2.83;2.25;;;2.40;99.90;;;;;;4927814;28;20412;-79
2021/01/13 11:13:01;;;;;;;1.77;1.67;;;2.40;99.90;;;;;;4930401;28;20408;-77
2021/01/13 11:15:26;;;;;;;3.65;1.92;;;2.40;99.90;;;;;;4910379;28;20398;-76
2021/01/13 11:17:56;;;;;;;1.80;1.70;;;2.30;99.90;;;;;;4875954;28;20427;-74
2021/01/13 11:20:29;;;;;;;2.53;2.25;;;2.30;99.90;;;;;;4868193;28;20828;-77
2021/01/13 11:22:58;;;;;;;3.42;1.90;;;2.30;99.90;;;;;;4948231;28;20491;-73
2021/01/13 11:25:36;;;;;;;2.00;1.75;;;2.40;99.90;;;;;;4883627;29;20406;-73
2021/01/13 11:28:06;;;;;;;3.58;2.67;;;2.40;99.90;;;;;;4873069;28;20404;-75
2021/01/13 11:30:33;;;;;;;2.55;1.95;;;2.50;99.90;;;;;;4934938;28;20448;-75
2021/01/13 11:33:00;;;;;;;2.75;1.70;;;2.50;99.90;;;;;;4834390;28;20404;-74
2021/01/13 11:35:26;;;;;;;2.80;2.00;;;2.50;99.90;;;;;;4844592;28;20407;-80
2021/01/13 11:38:16;;;;;;;3.78;2.00;;;2.50;99.90;;;;;;4868614;28;20491;-80
2021/01/13 11:40:50;;;;;;;2.03;1.83;;;2.50;99.90;;;;;;4949525;28;20443;-78
2021/01/13 11:43:47;;;;;;;1.90;1.80;;;2.50;99.90;;;;;;4938999;28;20420;-80
2021/01/13 11:46:45;;;;;;;1.98;1.77;;;2.50;99.90;;;;;;4903521;28;20686;-84
2021/01/13 11:49:14;;;;;;;2.35;1.80;;;2.50;99.90;;;;;;4925627;28;20440;-80
2021/01/13 11:51:51;;;;;;;1.85;1.67;;;2.40;99.90;;;;;;4903923;28;20463;-76
2021/01/13 11:54:30;;;;;;;3.20;2.30;;;2.40;99.90;;;;;;4824562;29;20434;-79
2021/01/13 11:57:34;;;;;;;3.25;1.83;;;2.40;99.90;;;;;;4837134;28;20413;-79
2021/01/13 12:00:12;;;;;;;3.15;1.80;;;2.50;99.90;;;;;;4910876;29;20403;-75
2021/01/13 12:02:38;;;;;;;1.98;1.77;;;2.50;99.90;;;;;;4926981;29;20404;-76
2021/01/13 12:05:07;;;;;;;2.20;1.70;;;2.50;99.90;;;;;;4933662;28;20396;-80
2021/01/13 12:07:33;;;;;;;2.25;1.85;;;2.60;99.90;;;;;;4919900;28;20476;-75
2021/01/13 12:10:12;;;;;;;2.05;1.90;;;2.60;99.90;;;;;;4824269;29;20501;-77
2021/01/13 12:12:38;;;;;;;3.30;1.98;;;2.60;99.90;;;;;;4949719;28;20412;-75
2021/01/13 12:15:11;;;;;;;2.63;1.90;;;2.70;99.90;;;;;;4940922;28;20407;-77
2021/01/13 12:17:50;;;;;;;2.23;1.73;;;2.60;99.90;;;;;;4845111;29;20432;-76
2021/01/13 12:20:35;;;;;;;3.80;1.92;;;2.60;99.90;;;;;;4932084;28;20896;-83
2021/01/13 12:23:21;;;;;;;4.85;2.00;;;2.60;99.90;;;;;;4922925;28;20480;-76
2021/01/13 12:25:47;;;;;;;2.70;2.00;;;2.60;99.90;;;;;;4939468;28;20418;-78
2021/01/13 12:28:13;;;;;;;2.47;1.80;;;2.60;99.90;;;;;;4923908;28;20463;-75
2021/01/13 12:30:59;;;;;;;2.37;1.90;;;2.60;99.90;;;;;;4922447;28;20467;-81
2021/01/13 12:33:24;;;;;;;2.77;1.70;;;2.50;99.90;;;;;;4855983;28;20528;-80
2021/01/13 12:35:50;;;;;;;3.10;2.20;;;2.50;99.90;;;;;;4905545;28;20420;-75
2021/01/13 12:38:16;;;;;;;2.33;1.92;;;2.50;99.90;;;;;;4868896;28;20470;-77
2021/01/13 12:40:42;;;;;;;2.30;1.90;;;2.50;99.90;;;;;;4853038;29;20439;-76
2021/01/13 12:43:25;;;;;;;2.10;1.90;;;2.50;99.90;;;;;;4861130;28;20417;-78
2021/01/13 12:45:51;;;;;;;3.72;2.10;;;2.50;99.90;;;;;;4925100;28;20422;-76
2021/01/13 12:48:16;;;;;;;6.35;2.50;;;2.50;99.90;;;;;;4877172;28;20817;-75
2021/01/13 12:50:42;;;;;;;2.13;1.93;;;2.50;99.90;;;;;;4880208;28;20423;-78
2021/01/13 12:53:08;;;;;;;3.90;2.53;;;2.60;99.90;;;;;;4954603;28;20416;-75
2021/01/13 12:55:34;;;;;;;3.00;2.45;;;2.60;99.90;;;;;;4940832;28;20402;-76
2021/01/13 12:57:59;;;;;;;5.20;2.90;;;2.60;99.90;;;;;;4874444;28;20418;-78
2021/01/13 13:00:26;;;;;;;3.13;2.80;;;2.80;99.90;;;;;;4864316;28;20472;-76
2021/01/13 13:02:53;;;;;;;1.90;1.80;;;2.60;99.90;;;;;;4828779;28;20408;-77
2021/01/13 13:05:18;;;;;;;2.72;1.70;;;2.60;99.90;;;;;;4826651;29;20414;-76
2021/01/13 13:07:44;;;;;;;1.70;1.60;;;2.60;99.90;;;;;;4842567;28;20440;-77
2021/01/13 13:10:10;;;;;;;2.83;2.03;;;2.60;99.90;;;;;;4843162;29;20972;-76
2021/01/13 13:12:36;;;;;;;4.38;2.00;;;2.60;99.90;;;;;;4862887;29;20452;-75
2021/01/13 13:15:02;;;;;;;2.20;2.00;;;2.60;99.90;;;;;;4840370;28;21015;-80
2021/01/13 13:17:28;;;;;;;3.58;1.90;;;2.60;99.90;;;;;;4849829;28;20454;-77
2021/01/13 13:19:53;;;;;;;2.17;1.63;;;2.70;99.90;;;;;;4954403;28;21014;-82